Virgie Cenac — WDC2765 — position and weather

sailwx.info

Track history (hours):
 
Tides and Currents Weather Stations Pressure Air Temp Water Temp Dewpoint Dewpoint Depression Visibility Wind Speed Wind Dir Waves Ship Positions

Virgie Cenac

Owner: Cenac Marine Transportation, Inc., Houma, LA. More information available from US FCC via Universal Licensing System and Coast Guard Vessel Documentation Center.

Last reported at 2014-Oct-06 21:25 UTC. Time now 2014-Oct-22 12:15 UTC.
Position N 29°48' W 091°10'.
Warning: this ship's position is 15 days out of date.

Length 18 m; draft 3 m.

Type: Towing. MMSI: 366997430.

Date/timePositionNaut miles runAvg speedWind from/ knotsBaromVisibWave heightAir tempDewpointWater temp
2014-Oct-06 21:25N 29°48' W 091°10'6 7.3
2014-Oct-06 20:33N 29°43' W 091°13'2 1.5
2014-Oct-06 19:34N 29°41' W 091°12'0 0.0
2014-Oct-06 18:33N 29°41' W 091°12'0 0.0
2014-Oct-06 17:34N 29°41' W 091°12'0 0.0
2014-Oct-06 16:33N 29°41' W 091°12'0 0.0
2014-Oct-06 15:34N 29°41' W 091°12'0 0.0
2014-Oct-06 14:33N 29°41' W 091°12'0 0.0
2014-Oct-06 13:33N 29°41' W 091°12'0 0.0
2014-Oct-06 12:34N 29°41' W 091°12'0 0.0
2014-Oct-06 11:34N 29°41' W 091°12'0 0.0
2014-Oct-06 10:33N 29°41' W 091°12'0 0.0
2014-Oct-06 09:33N 29°41' W 091°12'0 0.0
2014-Oct-06 08:33N 29°41' W 091°12'0 0.0
2014-Oct-06 07:33N 29°41' W 091°12'0 0.0
2014-Oct-06 06:34N 29°41' W 091°12'0 0.0
2014-Oct-06 05:33N 29°41' W 091°12'0 0.0
2014-Oct-06 04:34N 29°41' W 091°12'0 0.0
2014-Oct-06 03:34N 29°41' W 091°12'0 0.0
2014-Oct-06 02:33N 29°41' W 091°12'4 4.0
2014-Oct-06 01:33N 29°45' W 091°11'  
2014-Oct-02 20:33N 29°46' W 091°11'4 4.4
2014-Oct-02 19:34N 29°42' W 091°13'0 0.5
2014-Oct-02 18:34N 29°42' W 091°13'0 0.0
2014-Oct-02 17:33N 29°42' W 091°13'0 0.0
2014-Oct-02 16:33N 29°42' W 091°13'4 4.0
2014-Oct-02 15:33N 29°45' W 091°11'  
2014-Sep-30 07:12N 29°60' W 091°16'  
Track history (hours):
 
Tides and Currents Weather Stations Pressure Air Temp Water Temp Dewpoint Dewpoint Depression Visibility Wind Speed Wind Dir Waves Ship Positions

Virgie Cenac

Owner: Cenac Marine Transportation, Inc., Houma, LA. More information available from US FCC via Universal Licensing System and Coast Guard Vessel Documentation Center.

Last reported at 2014-Oct-06 21:25 UTC. Time now 2014-Oct-22 12:15 UTC.
Position N 29°48' W 091°10'.
Warning: this ship's position is 15 days out of date.

Length 18 m; draft 3 m.

Type: Towing. MMSI: 366997430.

Date/timePositionNaut miles runAvg speedWind from/ knotsBaromVisibWave heightAir tempDewpointWater temp
2014-Oct-06 21:25N 29°48' W 091°10'6 7.3
2014-Oct-06 20:33N 29°43' W 091°13'2 1.5
2014-Oct-06 19:34N 29°41' W 091°12'0 0.0
2014-Oct-06 18:33N 29°41' W 091°12'0 0.0
2014-Oct-06 17:34N 29°41' W 091°12'0 0.0
2014-Oct-06 16:33N 29°41' W 091°12'0 0.0
2014-Oct-06 15:34N 29°41' W 091°12'0 0.0
2014-Oct-06 14:33N 29°41' W 091°12'0 0.0
2014-Oct-06 13:33N 29°41' W 091°12'0 0.0
2014-Oct-06 12:34N 29°41' W 091°12'0 0.0
2014-Oct-06 11:34N 29°41' W 091°12'0 0.0
2014-Oct-06 10:33N 29°41' W 091°12'0 0.0
2014-Oct-06 09:33N 29°41' W 091°12'0 0.0
2014-Oct-06 08:33N 29°41' W 091°12'0 0.0
2014-Oct-06 07:33N 29°41' W 091°12'0 0.0
2014-Oct-06 06:34N 29°41' W 091°12'0 0.0
2014-Oct-06 05:33N 29°41' W 091°12'0 0.0
2014-Oct-06 04:34N 29°41' W 091°12'0 0.0
2014-Oct-06 03:34N 29°41' W 091°12'0 0.0
2014-Oct-06 02:33N 29°41' W 091°12'4 4.0
2014-Oct-06 01:33N 29°45' W 091°11'  
2014-Oct-02 20:33N 29°46' W 091°11'4 4.4
2014-Oct-02 19:34N 29°42' W 091°13'0 0.5
2014-Oct-02 18:34N 29°42' W 091°13'0 0.0
2014-Oct-02 17:33N 29°42' W 091°13'0 0.0
2014-Oct-02 16:33N 29°42' W 091°13'4 4.0
2014-Oct-02 15:33N 29°45' W 091°11'  
2014-Sep-30 07:12N 29°60' W 091°16'  

Dump ship's entire track history